Tipton, TN

8:42 AM CDT on March 29, 2015 (GMT -0500)
Millington Municipal | | Change Station
CLOSE
Current Station
Airport
Location: Millington,
Elevation: 322 ft
Nearby Weather Stations
Active Advisory: Freeze Warning, Flood Warning Active Notice: Record Report

Elev 322 ft 35.36 °N, 89.87 °W | Updated 47 minutes ago

Clear
Clear
36 °F
Feels Like 30 °F
N
7
Wind Variable Wind from ESE

Today
High -- | Low -- °F
--% Chance of Precip.
Yesterday
High -- | Low -- °F
Precip. -- in
6:50 AM 7:18 PM
Waxing Gibbous, 71% visible
Pressure 30.26 in
Visibility 10.0 miles
Clouds Few 25000 ft
Windchill 30 °F
Dew Point 28 °F
Humidity 75%
Rainfall 0.00 in
Snow Depth Not available.
UV 1 out of 12
Pollen 10.20 out of 12
Air Quality Not available.
Flu Activity Not available.
METAR KNQA 291255Z 11006KT 10SM FEW250 02/M02 A3026

More Conditions Fewer Conditions

Pressure 30.26 in
Visibility 10.0 miles
Clouds Few 25000 ft
Windchill 30 °F
Dew Point 28 °F
Humidity 75%
Rainfall 0.00 in
Snow Depth Not available.
UV 1 out of 12
Pollen 10.20 out of 12
Air Quality Not available.
Flu Activity Not available.
METAR KNQA 291255Z 11006KT 10SM FEW250 02/M02 A3026

More Conditions Fewer Conditions

10-Day Weather Forecast

Almanac

Astronomy

Mar. 29, 2015 Rise Set
Actual Time
Civil Twilight
Nautical Twilight
Astronomical Twilight
Moon
Length of Visible Light
Length of Day
Tomorrow will be .
, % of the Moon is Illuminated

Today's Extremes

State Highs State Lows

Community

WunderPhotos

Upload Photos

1,809,234 photos uploaded!

WunderBlogs® & News

Nearby

Air Quality

  Air Quality AQ Index Pollutant
Not available.

Snow Depth

Station Depth Elevation

Earthquake Activity

City Distance Mag. Time & Date
Minimum magnitude displayed is 2.5.

Coastal Water Temperatures

Place Temperature

Stations

Nearby Weather Stations

Station Location Temp. Windchill Dew Point Humidity Wind Precip. Elev Updated Type
                   
Freeze Warning
Statement as of 3:23 AM CDT on March 29, 2015

... Freeze warning remains in effect until 9 am CDT this morning...

* temperature... 24 degrees to 32 degrees.

* Timing... through mid morning.

* Impacts... sensitive vegetation may be damaged or killed.

Precautionary/preparedness actions...

A freeze warning means sub-freezing temperatures are imminent or
highly likely. These conditions will kill crops and other
sensitive vegetation.





Flood Warning
Statement as of 9:20 PM CDT on March 28, 2015

The Flood Warning continues for
the Mississippi River at Osceola
* until Wednesday April 01.
* At 09 PM Saturday the stage was 31.0 feet.
* Minor flooding is occurring and minor flooding is forecast.
* Flood stage is 28.0 feet.
* At 31.0 feet... in Tennessee, Nix Road is flooded. Major sections of
Four Mile Road are flooded. Snyder Bluff and northern Sam Taylor
roads are flooding. Sunk Lake Road is covered north of Bee Lake.
Fields on Morgan Point are being covered.


Lat... Lon 3582 8996 3582 8956 3560 8979 3539 8995
      3539 9025